createdAt,value
2023-02-23T00:02:34.404Z,100223.69
2023-02-23T00:07:36.720Z,100210.22
2023-02-23T00:12:38.473Z,100198.47
2023-02-23T00:17:41.076Z,100212.06
2023-02-23T00:22:43.005Z,100195.88
2023-02-23T00:27:46.031Z,100203.72
2023-02-23T00:32:47.553Z,100198.03
2023-02-23T00:37:49.272Z,100202.94
2023-02-23T00:42:52.271Z,100191.94
2023-02-23T00:47:53.789Z,100190.34
2023-02-23T00:52:59.625Z,100186.59
2023-02-23T00:58:01.098Z,100198.34
2023-02-23T01:03:02.551Z,100188.63
2023-02-23T01:08:04.487Z,100190.50
2023-02-23T01:13:06.034Z,100185.63
2023-02-23T01:18:07.453Z,100183.75
2023-02-23T01:23:12.636Z,100177.69
2023-02-23T01:28:14.080Z,100175.44
2023-02-23T01:33:15.903Z,100180.22
2023-02-23T01:38:18.803Z,100179.16
2023-02-23T01:43:26.116Z,100172.56
2023-02-23T01:48:34.247Z,100163.47
2023-02-23T01:53:39.941Z,100157.06
2023-02-23T01:58:46.986Z,100158.88
2023-02-23T02:04:16.586Z,100165.06
2023-02-23T02:09:18.330Z,100151.66
2023-02-23T02:14:29.467Z,100158.88
2023-02-23T02:19:48.722Z,100149.91
2023-02-23T02:25:15.216Z,100149.34
2023-02-23T02:30:39.436Z,100146.94
2023-02-23T02:36:08.051Z,100147.13
2023-02-23T02:41:18.920Z,100148.66
2023-02-23T02:46:27.054Z,100145.31
2023-02-23T02:51:35.142Z,100149.81
2023-02-23T02:56:40.513Z,100144.56
2023-02-23T03:02:00.618Z,100146.06
2023-02-23T03:07:29.475Z,100141.31
2023-02-23T03:13:02.158Z,100143.63
2023-02-23T03:18:51.507Z,100146.97
2023-02-23T03:24:23.159Z,100133.69
2023-02-23T03:30:21.343Z,100134.47
2023-02-23T03:35:51.297Z,100131.97
2023-02-23T03:41:14.050Z,100125.31
2023-02-23T03:46:37.561Z,100137.28
2023-02-23T03:52:01.042Z,100132.25
2023-02-23T03:57:26.062Z,100127.97
2023-02-23T04:02:46.755Z,100142.47
2023-02-23T04:08:09.753Z,100134.41
2023-02-23T04:13:20.168Z,100126.22
2023-02-23T04:18:25.282Z,100130.22
2023-02-23T04:23:27.926Z,100117.47
2023-02-23T04:28:29.453Z,100113.03
2023-02-23T04:33:30.923Z,100122.16
2023-02-23T04:38:32.344Z,100122.16
2023-02-23T04:43:33.801Z,100121.75
2023-02-23T04:48:35.220Z,100109.34
2023-02-23T04:53:38.304Z,100113.38
2023-02-23T04:58:39.792Z,100117.75
2023-02-23T05:03:41.221Z,100109.56
2023-02-23T05:08:42.816Z,100115.41
2023-02-23T05:13:44.297Z,100111.84
2023-02-23T05:18:45.727Z,100104.13
2023-02-23T05:23:47.989Z,100105.00
2023-02-23T05:28:49.697Z,100104.81
2023-02-23T05:33:51.140Z,100106.47
2023-02-23T05:38:52.587Z,100107.19
2023-02-23T05:43:55.612Z,100105.09
2023-02-23T05:49:00.113Z,100110.03
2023-02-23T05:54:01.703Z,100114.16
2023-02-23T05:59:04.839Z,100106.50
2023-02-23T06:04:06.425Z,100116.84
2023-02-23T06:09:07.956Z,100110.00
2023-02-23T06:14:09.435Z,100113.22
2023-02-23T06:19:11.888Z,100113.31
2023-02-23T06:24:13.335Z,100118.25
2023-02-23T06:29:15.616Z,100110.13
2023-02-23T06:34:17.070Z,100108.75
2023-02-23T06:39:18.474Z,100124.19
2023-02-23T06:44:19.938Z,100117.13
2023-02-23T06:49:21.478Z,100113.38
2023-02-23T06:54:23.588Z,100103.97
2023-02-23T06:59:25.041Z,100117.91
2023-02-23T07:04:26.514Z,100114.06
2023-02-23T07:09:30.363Z,100100.78
2023-02-23T07:14:33.178Z,100106.25
2023-02-23T07:19:35.069Z,100101.22
2023-02-23T07:24:36.512Z,100104.69
2023-02-23T07:29:37.928Z,100102.03
2023-02-23T07:34:39.840Z,100095.75
2023-02-23T07:39:41.307Z,100102.34
2023-02-23T07:44:42.733Z,100085.44
2023-02-23T07:49:44.210Z,100088.34
2023-02-23T07:54:45.675Z,100085.13
2023-02-23T07:59:47.993Z,100082.72
2023-02-23T08:04:49.640Z,100079.41
2023-02-23T08:09:51.584Z,100070.59
2023-02-23T08:14:53.933Z,100076.47
2023-02-23T08:19:55.395Z,100075.56
2023-02-23T08:24:57.052Z,100072.72
2023-02-23T08:30:00.755Z,100079.66
2023-02-23T08:35:05.658Z,100075.06
2023-02-23T08:40:08.027Z,100071.47
2023-02-23T08:45:10.350Z,100069.66
2023-02-23T08:50:13.030Z,100070.34
2023-02-23T08:55:16.621Z,100068.97
2023-02-23T09:00:18.601Z,100066.09
2023-02-23T09:05:20.413Z,100067.88
2023-02-23T09:10:24.866Z,100063.84
2023-02-23T09:15:26.347Z,100057.81
2023-02-23T09:20:28.137Z,100059.44
2023-02-23T09:25:31.515Z,100053.66
2023-02-23T09:30:33.022Z,100045.53
2023-02-23T09:35:36.265Z,100043.53
2023-02-23T09:40:54.815Z,100041.22
2023-02-23T09:46:02.100Z,100038.03
2023-02-23T09:51:08.667Z,100033.50
2023-02-23T09:56:30.238Z,100029.44
2023-02-23T10:01:49.789Z,100027.31
2023-02-23T10:07:15.031Z,100023.75
2023-02-23T10:12:46.189Z,100024.66
2023-02-23T10:18:03.366Z,100023.25
2023-02-23T10:23:09.615Z,100011.97
2023-02-23T10:28:17.337Z,100015.31
2023-02-23T10:33:25.165Z,100005.19
2023-02-23T10:38:26.733Z,100006.25
2023-02-23T10:43:28.162Z,99996.56
2023-02-23T10:48:37.274Z,99989.03
2023-02-23T10:53:39.993Z,99982.69
2023-02-23T10:58:53.010Z,99978.09
2023-02-23T11:04:05.312Z,99972.28
2023-02-23T11:09:33.069Z,99958.50
2023-02-23T11:14:43.836Z,99956.59
2023-02-23T11:19:46.440Z,99953.13
2023-02-23T11:24:48.029Z,99946.22
2023-02-23T11:29:52.458Z,99939.44
2023-02-23T11:35:12.330Z,99932.47
2023-02-23T11:40:31.869Z,99928.41
2023-02-23T11:45:44.577Z,99925.44
2023-02-23T11:50:48.509Z,99918.28
2023-02-23T11:55:54.808Z,99914.25
2023-02-23T12:01:12.134Z,99898.97
2023-02-23T12:06:27.649Z,99902.94
2023-02-23T12:11:34.416Z,99897.31
2023-02-23T12:16:43.248Z,99891.72
2023-02-23T12:21:55.702Z,99886.56
2023-02-23T12:27:01.792Z,99874.16
2023-02-23T12:32:12.883Z,99863.00
2023-02-23T12:37:29.773Z,99862.00
2023-02-23T12:42:42.744Z,99863.22
2023-02-23T12:48:06.042Z,99850.56
2023-02-23T12:53:15.031Z,99848.44
2023-02-23T12:58:50.083Z,99846.38
2023-02-23T13:03:51.430Z,99839.84
2023-02-23T13:09:03.137Z,99830.16
2023-02-23T13:14:43.191Z,99831.81
2023-02-23T13:19:54.854Z,99829.88
2023-02-23T13:25:04.605Z,99821.50
2023-02-23T13:30:10.843Z,99820.13
2023-02-23T13:35:17.626Z,99818.19
2023-02-23T13:40:27.484Z,99801.78
2023-02-23T13:45:43.912Z,99803.81
2023-02-23T13:50:55.379Z,99800.09
2023-02-23T13:56:00.287Z,99802.69
2023-02-23T14:01:28.240Z,99798.97
2023-02-23T14:06:33.340Z,99795.66
2023-02-23T14:11:47.901Z,99790.84
2023-02-23T14:17:10.059Z,99795.97
2023-02-23T14:22:18.504Z,99793.03
2023-02-23T14:27:41.373Z,99781.66
2023-02-23T14:32:46.084Z,99780.22
2023-02-23T14:37:58.675Z,99786.69
2023-02-23T14:43:03.317Z,99779.28
2023-02-23T14:48:12.883Z,99778.34
2023-02-23T14:53:22.010Z,99779.66
2023-02-23T14:58:25.911Z,99773.31
2023-02-23T15:03:27.478Z,99776.19
2023-02-23T15:08:30.808Z,99763.59
2023-02-23T15:13:42.507Z,99765.59
2023-02-23T15:18:44.919Z,99758.59
2023-02-23T15:23:52.145Z,99756.88
2023-02-23T15:28:53.753Z,99753.50
2023-02-23T15:33:57.676Z,99744.47
2023-02-23T15:39:00.981Z,99739.28
2023-02-23T15:44:27.523Z,99737.75
2023-02-23T15:49:33.743Z,99739.13
2023-02-23T15:54:54.307Z,99730.84
2023-02-23T16:00:06.010Z,99733.31
2023-02-23T16:05:28.480Z,99730.38
2023-02-23T16:10:43.456Z,99723.16
2023-02-23T16:15:45.037Z,99723.56
2023-02-23T16:20:56.100Z,99725.63
2023-02-23T16:26:01.966Z,99717.59
2023-02-23T16:31:06.868Z,99719.19
2023-02-23T16:36:15.564Z,99717.50
2023-02-23T16:41:22.143Z,99719.19
2023-02-23T16:46:25.529Z,99722.41
2023-02-23T16:51:27.295Z,99714.59
2023-02-23T16:56:30.632Z,99720.94
2023-02-23T17:01:32.069Z,99716.66
2023-02-23T17:06:33.479Z,99720.44
2023-02-23T17:11:35.118Z,99717.75
2023-02-23T17:16:37.332Z,99722.63
2023-02-23T17:21:38.783Z,99720.56
2023-02-23T17:26:42.313Z,99717.41
2023-02-23T17:31:43.998Z,99715.78
2023-02-23T17:36:45.546Z,99719.81
2023-02-23T17:41:47.304Z,99719.81
2023-02-23T17:46:48.928Z,99715.78
2023-02-23T17:51:50.388Z,99707.44
2023-02-23T17:56:51.830Z,99705.72
2023-02-23T18:01:53.472Z,99706.19
2023-02-23T18:06:56.636Z,99699.72
2023-02-23T18:11:58.049Z,99695.22
2023-02-23T18:17:00.096Z,99687.63
2023-02-23T18:22:01.587Z,99683.72
2023-02-23T18:27:03.102Z,99677.84
2023-02-23T18:32:07.738Z,99689.16
2023-02-23T18:37:10.045Z,99682.19
2023-02-23T18:42:11.669Z,99680.38
2023-02-23T18:47:13.291Z,99683.22
2023-02-23T18:52:14.774Z,99683.94
2023-02-23T18:57:16.211Z,99679.06
2023-02-23T19:02:18.834Z,99681.25
2023-02-23T19:07:20.274Z,99681.38
2023-02-23T19:12:21.795Z,99671.34
2023-02-23T19:17:25.019Z,99669.63
2023-02-23T19:22:28.347Z,99669.25
2023-02-23T19:27:29.770Z,99667.78
2023-02-23T19:32:31.324Z,99659.34
2023-02-23T19:37:32.879Z,99663.63
2023-02-23T19:42:35.143Z,99662.16
2023-02-23T19:47:36.579Z,99670.72
2023-02-23T19:52:38.844Z,99668.41
2023-02-23T19:57:40.392Z,99664.13
2023-02-23T20:02:44.651Z,99662.75
2023-02-23T20:07:46.202Z,99654.16
2023-02-23T20:12:47.628Z,99664.69
2023-02-23T20:17:49.099Z,99655.00
2023-02-23T20:22:52.511Z,99658.69
2023-02-23T20:27:54.766Z,99650.78
2023-02-23T20:32:57.291Z,99640.88
2023-02-23T20:37:59.217Z,99643.31
2023-02-23T20:43:00.710Z,99629.66
2023-02-23T20:48:03.433Z,99627.19
2023-02-23T20:53:05.540Z,99625.88
2023-02-23T20:58:07.221Z,99620.84
2023-02-23T21:03:10.019Z,99616.22
2023-02-23T21:08:11.455Z,99606.66
2023-02-23T21:13:12.881Z,99613.25
2023-02-23T21:18:14.465Z,99610.56
2023-02-23T21:23:17.641Z,99604.22
2023-02-23T21:28:21.079Z,99611.41
2023-02-23T21:33:22.547Z,99594.25
2023-02-23T21:38:25.725Z,99593.66
2023-02-23T21:43:28.014Z,99590.47
2023-02-23T21:48:29.951Z,99588.72
2023-02-23T21:53:31.836Z,99577.94
2023-02-23T21:58:33.563Z,99575.25
2023-02-23T22:03:34.996Z,99578.41
2023-02-23T22:08:36.428Z,99571.19
2023-02-23T22:13:37.834Z,99564.69
2023-02-23T22:18:40.856Z,99565.69
2023-02-23T22:23:43.873Z,99559.66
2023-02-23T22:28:45.378Z,99558.13
2023-02-23T22:33:46.802Z,99549.72
2023-02-23T22:38:48.841Z,99550.03
2023-02-23T22:43:50.499Z,99549.03
2023-02-23T22:48:52.000Z,99542.81
2023-02-23T22:53:53.419Z,99538.53
2023-02-23T22:58:55.937Z,99538.75
2023-02-23T23:03:57.370Z,99529.72
2023-02-23T23:08:58.857Z,99535.66
2023-02-23T23:14:03.170Z,99527.75
2023-02-23T23:19:12.740Z,99524.81
2023-02-23T23:24:15.209Z,99516.13
2023-02-23T23:29:18.100Z,99507.19
2023-02-23T23:34:22.410Z,99504.31
2023-02-23T23:39:25.977Z,99502.16
2023-02-23T23:44:29.365Z,99496.03
2023-02-23T23:49:39.622Z,99489.47
2023-02-23T23:54:42.337Z,99480.03
2023-02-23T23:59:46.310Z,99476.44
